createdAt,value
2023-05-12T00:01:26.048Z,100.00
2023-05-12T00:03:54.731Z,100.00
2023-05-12T00:06:22.946Z,100.00
2023-05-12T00:08:53.816Z,100.00
2023-05-12T00:11:22.185Z,100.00
2023-05-12T00:13:50.237Z,100.00
2023-05-12T00:16:18.997Z,100.00
2023-05-12T00:18:47.056Z,100.00
2023-05-12T00:21:15.028Z,100.00
2023-05-12T00:23:43.247Z,100.00
2023-05-12T00:26:12.591Z,100.00
2023-05-12T00:28:40.609Z,100.00
2023-05-12T00:31:08.779Z,100.00
2023-05-12T00:33:37.009Z,100.00
2023-05-12T00:36:05.530Z,100.00
2023-05-12T00:38:34.425Z,100.00
2023-05-12T00:41:04.701Z,100.00
2023-05-12T00:43:34.205Z,100.00
2023-05-12T00:46:03.697Z,100.00
2023-05-12T00:48:32.273Z,100.00
2023-05-12T00:51:01.860Z,100.00
2023-05-12T00:53:41.105Z,100.00
2023-05-12T00:56:16.946Z,100.00
2023-05-12T00:58:46.799Z,100.00
2023-05-12T01:01:15.017Z,100.00
2023-05-12T01:03:43.072Z,100.00
2023-05-12T01:06:16.891Z,100.00
2023-05-12T01:08:45.264Z,100.00
2023-05-12T01:11:13.326Z,100.00
2023-05-12T01:13:41.928Z,100.00
2023-05-12T01:16:16.423Z,100.00
2023-05-12T01:18:50.109Z,100.00
2023-05-12T01:21:19.594Z,100.00
2023-05-12T01:23:53.159Z,100.00
2023-05-12T01:26:23.044Z,100.00
2023-05-12T01:28:52.463Z,100.00
2023-05-12T01:31:21.430Z,100.00
2023-05-12T01:33:49.487Z,100.00
2023-05-12T01:36:17.511Z,100.00
2023-05-12T01:38:45.535Z,100.00
2023-05-12T01:41:13.481Z,100.00
2023-05-12T01:43:42.875Z,100.00
2023-05-12T01:46:11.346Z,100.00
2023-05-12T01:48:39.371Z,100.00
2023-05-12T01:51:09.070Z,100.00
2023-05-12T01:53:37.027Z,100.00
2023-05-12T01:56:05.095Z,100.00
2023-05-12T01:58:33.048Z,100.00
2023-05-12T02:01:02.356Z,100.00
2023-05-12T02:03:30.649Z,100.00
2023-05-12T02:05:58.687Z,100.00
2023-05-12T02:08:26.665Z,100.00
2023-05-12T02:11:06.180Z,100.00
2023-05-12T02:13:34.187Z,100.00
2023-05-12T02:16:04.018Z,100.00
2023-05-12T02:18:32.067Z,100.00
2023-05-12T02:21:00.049Z,100.00
2023-05-12T02:23:27.975Z,100.00
2023-05-12T02:25:56.026Z,100.00
2023-05-12T02:28:24.075Z,100.00
2023-05-12T02:30:53.240Z,100.00
2023-05-12T02:33:23.184Z,100.00
2023-05-12T02:35:51.381Z,100.00
2023-05-12T02:38:19.648Z,100.00
2023-05-12T02:40:47.964Z,100.00
2023-05-12T02:43:15.889Z,100.00
2023-05-12T02:45:44.020Z,100.00
2023-05-12T02:48:12.130Z,100.00
2023-05-12T02:50:41.449Z,100.00
2023-05-12T02:53:09.444Z,100.00
2023-05-12T02:55:37.426Z,100.00
2023-05-12T02:58:05.516Z,100.00
2023-05-12T03:00:33.423Z,100.00
2023-05-12T03:03:01.525Z,100.00
2023-05-12T03:05:29.633Z,100.00
2023-05-12T03:07:59.598Z,100.00
2023-05-12T03:10:27.618Z,100.00
2023-05-12T03:12:55.574Z,100.00
2023-05-12T03:15:23.579Z,100.00
2023-05-12T03:17:51.590Z,100.00
2023-05-12T03:20:20.363Z,100.00
2023-05-12T03:22:48.605Z,100.00
2023-05-12T03:25:17.997Z,100.00
2023-05-12T03:27:45.949Z,100.00
2023-05-12T03:30:14.901Z,100.00
2023-05-12T03:32:44.369Z,100.00
2023-05-12T03:35:12.421Z,100.00
2023-05-12T03:37:40.431Z,100.00
2023-05-12T03:40:09.637Z,100.00
2023-05-12T03:42:38.953Z,100.00
2023-05-12T03:45:07.909Z,100.00
2023-05-12T03:47:36.622Z,100.00
2023-05-12T03:50:05.081Z,100.00
2023-05-12T03:52:33.049Z,100.00
2023-05-12T03:55:01.020Z,100.00
2023-05-12T03:57:29.064Z,100.00
2023-05-12T03:59:58.448Z,100.00
2023-05-12T04:02:26.551Z,100.00
2023-05-12T04:04:54.807Z,100.00
2023-05-12T04:07:22.858Z,100.00
2023-05-12T04:09:50.924Z,100.00
2023-05-12T04:12:18.914Z,100.00
2023-05-12T04:14:46.845Z,100.00
2023-05-12T04:17:18.804Z,100.00
2023-05-12T04:19:46.818Z,100.00
2023-05-12T04:22:14.824Z,100.00
2023-05-12T04:24:42.738Z,100.00
2023-05-12T04:27:10.788Z,100.00
2023-05-12T04:29:38.758Z,100.00
2023-05-12T04:32:07.733Z,100.00
2023-05-12T04:34:37.332Z,100.00
2023-05-12T04:37:05.532Z,100.00
2023-05-12T04:39:33.464Z,100.00
2023-05-12T04:42:02.623Z,100.00
2023-05-12T04:44:30.576Z,100.00
2023-05-12T04:46:58.474Z,100.00
2023-05-12T04:49:26.438Z,100.00
2023-05-12T04:51:56.229Z,100.00
2023-05-12T04:54:24.242Z,100.00
2023-05-12T04:56:52.186Z,100.00
2023-05-12T04:59:20.183Z,100.00
2023-05-12T05:01:48.157Z,100.00
2023-05-12T05:04:16.990Z,100.00
2023-05-12T05:06:44.875Z,100.00
2023-05-12T05:09:14.210Z,100.00
2023-05-12T05:11:42.148Z,100.00
2023-05-12T05:14:10.062Z,100.00
2023-05-12T05:16:38.040Z,100.00
2023-05-12T05:19:06.849Z,100.00
2023-05-12T05:21:43.752Z,100.00
2023-05-12T05:24:11.850Z,100.00
2023-05-12T05:26:42.026Z,100.00
2023-05-12T05:29:09.983Z,100.00
2023-05-12T05:31:38.908Z,100.00
2023-05-12T05:34:06.924Z,100.00
2023-05-12T05:36:34.950Z,100.00
2023-05-12T05:39:02.914Z,100.00
2023-05-12T05:41:31.380Z,100.00
2023-05-12T05:44:01.594Z,100.00
2023-05-12T05:46:29.596Z,100.00
2023-05-12T05:48:57.587Z,100.00
2023-05-12T05:51:25.580Z,100.00
2023-05-12T05:53:53.495Z,100.00
2023-05-12T05:56:23.118Z,100.00
2023-05-12T05:58:51.560Z,100.00
2023-05-12T06:01:20.903Z,100.00
2023-05-12T06:03:49.098Z,100.00
2023-05-12T06:06:17.107Z,100.00
2023-05-12T06:08:45.496Z,100.00
2023-05-12T06:11:13.753Z,100.00
2023-05-12T06:13:42.487Z,100.00
2023-05-12T06:16:10.514Z,100.00
2023-05-12T06:18:39.992Z,100.00
2023-05-12T06:21:07.969Z,100.00
2023-05-12T06:23:35.923Z,100.00
2023-05-12T06:26:04.146Z,100.00
2023-05-12T06:28:32.128Z,100.00
2023-05-12T06:31:00.654Z,100.00
2023-05-12T06:33:28.630Z,100.00
2023-05-12T06:35:58.332Z,100.00
2023-05-12T06:38:26.314Z,100.00
2023-05-12T06:40:54.252Z,100.00
2023-05-12T06:43:23.413Z,100.00
2023-05-12T06:45:51.509Z,100.00
2023-05-12T06:48:19.463Z,100.00
2023-05-12T06:50:47.413Z,100.00
2023-05-12T06:53:16.730Z,100.00
2023-05-12T06:55:46.369Z,100.00
2023-05-12T06:58:14.295Z,100.00
2023-05-12T07:00:42.234Z,100.00
2023-05-12T07:03:10.768Z,100.00
2023-05-12T07:05:38.827Z,100.00
2023-05-12T07:08:07.011Z,100.00
2023-05-12T07:10:36.342Z,100.00
2023-05-12T07:13:04.380Z,100.00
2023-05-12T07:15:33.043Z,100.00
2023-05-12T07:18:01.190Z,100.00
2023-05-12T07:20:29.249Z,100.00
2023-05-12T07:22:57.281Z,100.00
2023-05-12T07:25:25.233Z,100.00
2023-05-12T07:27:54.683Z,100.00
2023-05-12T07:30:22.910Z,100.00
2023-05-12T07:32:50.922Z,100.00
2023-05-12T07:35:19.200Z,100.00
2023-05-12T07:37:47.387Z,100.00
2023-05-12T07:40:15.490Z,100.00
2023-05-12T07:42:43.448Z,100.00
2023-05-12T07:45:13.155Z,100.00
2023-05-12T07:47:41.520Z,100.00
2023-05-12T07:50:09.734Z,100.00
2023-05-12T07:52:37.736Z,100.00
2023-05-12T07:55:06.167Z,100.00
2023-05-12T07:57:34.109Z,100.00
2023-05-12T08:00:02.142Z,100.00
2023-05-12T08:02:31.553Z,100.00
2023-05-12T08:04:59.554Z,100.00
2023-05-12T08:07:27.536Z,100.00
2023-05-12T08:09:55.691Z,100.00
2023-05-12T08:12:23.681Z,100.00
2023-05-12T08:14:51.673Z,100.00
2023-05-12T08:17:19.724Z,100.00
2023-05-12T08:19:49.125Z,100.00
2023-05-12T08:22:17.265Z,100.00
2023-05-12T08:24:45.278Z,100.00
2023-05-12T08:27:13.241Z,100.00
2023-05-12T08:29:41.244Z,100.00
2023-05-12T08:32:09.277Z,100.00
2023-05-12T08:34:37.253Z,100.00
2023-05-12T08:37:07.542Z,100.00
2023-05-12T08:39:36.494Z,98.75
2023-05-12T08:42:13.681Z,98.68
2023-05-12T08:44:41.814Z,99.04
2023-05-12T08:47:10.749Z,96.78
2023-05-12T08:49:41.117Z,97.31
2023-05-12T08:52:11.926Z,97.73
2023-05-12T08:54:52.271Z,98.90
2023-05-12T08:57:24.485Z,94.18
2023-05-12T08:59:55.133Z,94.27
2023-05-12T09:02:24.502Z,91.33
2023-05-12T09:04:55.032Z,92.92
2023-05-12T09:07:24.733Z,92.65
2023-05-12T09:09:58.114Z,90.16
2023-05-12T09:12:27.987Z,88.68
2023-05-12T09:15:04.237Z,91.98
2023-05-12T09:17:32.208Z,90.78
2023-05-12T09:20:00.224Z,93.33
2023-05-12T09:22:35.164Z,95.05
2023-05-12T09:25:15.461Z,97.71
2023-05-12T09:27:43.520Z,95.93
2023-05-12T09:30:12.254Z,93.91
2023-05-12T09:32:40.270Z,92.92
2023-05-12T09:35:11.394Z,94.79
2023-05-12T09:37:41.356Z,96.75
2023-05-12T09:40:11.579Z,97.23
2023-05-12T09:42:39.766Z,97.58
2023-05-12T09:45:10.077Z,98.08
2023-05-12T09:47:39.769Z,97.39
2023-05-12T09:50:10.285Z,95.67
2023-05-12T09:52:41.138Z,92.01
2023-05-12T09:55:10.691Z,91.41
2023-05-12T09:57:41.815Z,91.92
2023-05-12T10:00:31.147Z,92.98
2023-05-12T10:03:02.721Z,91.75
2023-05-12T10:05:32.288Z,93.14
2023-05-12T10:08:04.571Z,93.09
2023-05-12T10:10:33.561Z,93.33
2023-05-12T10:13:01.939Z,94.39
2023-05-12T10:15:30.566Z,95.74
2023-05-12T10:17:59.625Z,97.35
2023-05-12T10:20:28.908Z,94.22
2023-05-12T10:22:59.015Z,92.92
2023-05-12T10:25:29.347Z,91.23
2023-05-12T10:27:58.622Z,89.71
2023-05-12T10:30:26.845Z,88.61
2023-05-12T10:32:54.913Z,90.19
2023-05-12T10:35:33.893Z,87.56
2023-05-12T10:38:08.708Z,84.20
2023-05-12T10:40:38.455Z,85.69
2023-05-12T10:43:06.740Z,87.88
2023-05-12T10:45:38.406Z,87.63
2023-05-12T10:48:08.455Z,84.44
2023-05-12T10:50:36.590Z,79.97
2023-05-12T10:53:04.579Z,79.63
2023-05-12T10:55:45.548Z,82.71
2023-05-12T10:58:14.730Z,79.89
2023-05-12T11:00:47.840Z,80.43
2023-05-12T11:03:19.892Z,85.36
2023-05-12T11:05:59.343Z,78.83
2023-05-12T11:08:28.843Z,74.86
2023-05-12T11:10:59.047Z,75.05
2023-05-12T11:13:27.337Z,77.07
2023-05-12T11:15:57.555Z,74.43
2023-05-12T11:18:25.623Z,74.77
2023-05-12T11:20:53.662Z,79.23
2023-05-12T11:23:29.173Z,77.38
2023-05-12T11:25:58.905Z,77.36
2023-05-12T11:28:26.894Z,76.32
2023-05-12T11:30:55.818Z,76.73
2023-05-12T11:33:24.508Z,74.70
2023-05-12T11:35:52.436Z,79.57
2023-05-12T11:38:24.467Z,78.14
2023-05-12T11:40:52.692Z,80.05
2023-05-12T11:43:23.304Z,78.36
2023-05-12T11:45:51.577Z,77.03
2023-05-12T11:48:19.790Z,79.03
2023-05-12T11:50:48.250Z,77.76
2023-05-12T11:53:18.662Z,74.27
2023-05-12T11:55:51.092Z,70.28
2023-05-12T11:58:26.731Z,67.17
2023-05-12T12:00:55.370Z,67.51
2023-05-12T12:03:23.457Z,73.09
2023-05-12T12:06:02.000Z,74.44
2023-05-12T12:08:30.140Z,78.30
2023-05-12T12:10:58.147Z,79.36
2023-05-12T12:13:27.658Z,78.79
2023-05-12T12:15:56.212Z,79.61
2023-05-12T12:18:24.252Z,74.48
2023-05-12T12:20:52.303Z,75.86
2023-05-12T12:23:20.231Z,75.82
2023-05-12T12:25:48.192Z,67.74
2023-05-12T12:28:16.166Z,68.33
2023-05-12T12:30:45.528Z,64.30
2023-05-12T12:33:13.509Z,66.34
2023-05-12T12:35:41.566Z,64.90
2023-05-12T12:38:09.516Z,64.41
2023-05-12T12:40:37.447Z,63.75
2023-05-12T12:43:05.434Z,61.47
2023-05-12T12:45:33.394Z,61.18
2023-05-12T12:48:02.849Z,64.92
2023-05-12T12:50:30.846Z,65.26
2023-05-12T12:52:58.866Z,65.56
2023-05-12T12:55:27.086Z,68.94
2023-05-12T12:57:55.070Z,69.27
2023-05-12T13:00:24.413Z,72.81
2023-05-12T13:02:52.748Z,71.13
2023-05-12T13:05:22.413Z,71.42
2023-05-12T13:07:51.566Z,71.09
2023-05-12T13:10:20.001Z,68.02
2023-05-12T13:12:48.112Z,65.86
2023-05-12T13:15:19.395Z,66.61
2023-05-12T13:17:50.551Z,70.67
2023-05-12T13:20:20.402Z,68.56
2023-05-12T13:22:51.586Z,75.75
2023-05-12T13:25:19.854Z,78.92
2023-05-12T13:27:49.382Z,82.97
2023-05-12T13:30:18.270Z,85.06
2023-05-12T13:32:48.734Z,86.24
2023-05-12T13:35:16.791Z,87.07
2023-05-12T13:37:46.294Z,91.47
2023-05-12T13:40:18.867Z,100.00
2023-05-12T13:42:46.942Z,100.00
2023-05-12T13:45:16.748Z,100.00
2023-05-12T13:47:46.193Z,100.00
2023-05-12T13:50:15.545Z,100.00
2023-05-12T13:52:43.595Z,96.75
2023-05-12T13:55:18.455Z,91.79
2023-05-12T13:57:51.621Z,97.62
2023-05-12T14:00:20.510Z,98.96
2023-05-12T14:02:51.986Z,95.37
2023-05-12T14:05:20.374Z,99.49
2023-05-12T14:07:48.608Z,100.00
2023-05-12T14:10:19.064Z,100.00
2023-05-12T14:12:47.323Z,100.00
2023-05-12T14:17:48.788Z,100.00
2023-05-12T14:20:16.887Z,100.00
2023-05-12T14:22:44.837Z,100.00
2023-05-12T14:25:13.039Z,100.00
2023-05-12T14:27:41.012Z,100.00
2023-05-12T14:30:11.194Z,100.00
2023-05-12T14:32:40.594Z,100.00
2023-05-12T14:35:10.730Z,100.00
2023-05-12T14:37:38.803Z,100.00
2023-05-12T14:40:08.639Z,100.00
2023-05-12T14:42:36.603Z,100.00
2023-05-12T14:45:05.166Z,100.00
2023-05-12T14:47:33.248Z,100.00
2023-05-12T14:50:02.964Z,100.00
2023-05-12T14:52:38.199Z,100.00
2023-05-12T14:55:11.478Z,97.01
2023-05-12T14:57:39.781Z,88.58
2023-05-12T15:00:10.874Z,86.86
2023-05-12T15:02:39.550Z,87.37
2023-05-12T15:05:10.563Z,87.80
2023-05-12T15:07:39.379Z,85.95
2023-05-12T15:10:07.989Z,86.77
2023-05-12T15:12:36.455Z,82.07
2023-05-12T15:15:06.077Z,82.83
2023-05-12T15:17:34.459Z,81.68
2023-05-12T15:20:02.552Z,81.16
2023-05-12T15:22:32.361Z,80.94
2023-05-12T15:25:00.405Z,81.50
2023-05-12T15:27:28.699Z,83.09
2023-05-12T15:29:56.697Z,82.92
2023-05-12T15:32:24.728Z,79.04
2023-05-12T15:34:52.966Z,79.64
2023-05-12T15:37:20.905Z,78.42
2023-05-12T15:39:51.232Z,78.78
2023-05-12T15:42:22.760Z,82.45
2023-05-12T15:44:57.884Z,85.76
2023-05-12T15:47:25.832Z,82.85
2023-05-12T15:49:53.778Z,88.65
2023-05-12T15:52:21.763Z,90.82
2023-05-12T15:54:51.352Z,92.25
2023-05-12T15:57:19.309Z,94.05
2023-05-12T15:59:47.607Z,96.36
2023-05-12T16:02:15.594Z,95.90
2023-05-12T16:04:44.376Z,95.80
2023-05-12T16:07:12.341Z,95.12
2023-05-12T16:09:40.256Z,93.79
2023-05-12T16:12:11.450Z,94.65
2023-05-12T16:14:39.365Z,95.50
2023-05-12T16:17:07.303Z,95.55
2023-05-12T16:19:35.793Z,94.91
2023-05-12T16:22:03.796Z,93.68
2023-05-12T16:24:31.799Z,93.54
2023-05-12T16:27:00.379Z,92.80
2023-05-12T16:29:30.267Z,95.42
2023-05-12T16:31:58.415Z,93.94
2023-05-12T16:34:27.522Z,95.79
2023-05-12T16:36:55.468Z,97.41
2023-05-12T16:39:23.418Z,98.18
2023-05-12T16:41:51.616Z,96.14
2023-05-12T16:44:19.671Z,97.31
2023-05-12T16:46:49.495Z,100.00
2023-05-12T16:49:17.626Z,100.00
2023-05-12T16:51:45.666Z,99.02
2023-05-12T16:54:13.612Z,96.35
2023-05-12T16:56:41.519Z,97.82
2023-05-12T16:59:09.463Z,98.75
2023-05-12T17:01:39.477Z,100.00
2023-05-12T17:04:11.891Z,100.00
2023-05-12T17:06:39.856Z,100.00
2023-05-12T17:09:07.838Z,100.00
2023-05-12T17:11:36.747Z,100.00
2023-05-12T17:14:05.272Z,100.00
2023-05-12T17:16:33.255Z,100.00
2023-05-12T17:21:33.834Z,100.00
2023-05-12T17:24:02.004Z,100.00
2023-05-12T17:26:30.009Z,100.00
2023-05-12T17:28:57.969Z,100.00
2023-05-12T17:31:38.616Z,100.00
2023-05-12T17:34:07.361Z,100.00
2023-05-12T17:36:37.678Z,100.00
2023-05-12T17:39:06.329Z,100.00
2023-05-12T17:41:35.069Z,100.00
2023-05-12T17:44:03.810Z,100.00
2023-05-12T17:46:32.592Z,100.00
2023-05-12T17:49:01.466Z,100.00
2023-05-12T17:51:30.901Z,100.00
2023-05-12T17:54:01.136Z,100.00
2023-05-12T17:56:29.834Z,100.00
2023-05-12T17:58:58.299Z,100.00
2023-05-12T18:01:26.292Z,100.00
2023-05-12T18:03:54.577Z,100.00
2023-05-12T18:06:22.567Z,100.00
2023-05-12T18:08:50.525Z,100.00
2023-05-12T18:11:19.952Z,100.00
2023-05-12T18:13:48.133Z,100.00
2023-05-12T18:16:25.361Z,100.00
2023-05-12T18:18:57.535Z,100.00
2023-05-12T18:21:25.855Z,100.00
2023-05-12T18:23:53.828Z,100.00
2023-05-12T18:26:23.200Z,100.00
2023-05-12T18:28:51.577Z,100.00
2023-05-12T18:31:20.103Z,100.00
2023-05-12T18:33:48.157Z,100.00
2023-05-12T18:36:16.141Z,100.00
2023-05-12T18:38:44.175Z,100.00
2023-05-12T18:41:13.948Z,100.00
2023-05-12T18:43:44.247Z,100.00
2023-05-12T18:46:12.825Z,100.00
2023-05-12T18:48:40.855Z,100.00
2023-05-12T18:51:09.593Z,100.00
2023-05-12T18:53:37.591Z,100.00
2023-05-12T18:56:05.768Z,100.00
2023-05-12T18:58:33.847Z,100.00
2023-05-12T19:01:05.140Z,100.00
2023-05-12T19:03:33.784Z,100.00
2023-05-12T19:06:01.827Z,100.00
2023-05-12T19:08:29.793Z,100.00
2023-05-12T19:10:57.763Z,100.00
2023-05-12T19:13:25.728Z,100.00
2023-05-12T19:15:53.753Z,100.00
2023-05-12T19:18:23.349Z,100.00
2023-05-12T19:20:51.300Z,100.00
2023-05-12T19:23:19.280Z,100.00
2023-05-12T19:25:47.207Z,100.00
2023-05-12T19:28:15.153Z,100.00
2023-05-12T19:30:43.354Z,100.00
2023-05-12T19:33:11.376Z,100.00
2023-05-12T19:35:40.821Z,100.00
2023-05-12T19:38:08.767Z,100.00
2023-05-12T19:40:36.718Z,100.00
2023-05-12T19:43:08.906Z,100.00
2023-05-12T19:45:36.982Z,100.00
2023-05-12T19:48:05.230Z,100.00
2023-05-12T19:50:33.307Z,100.00
2023-05-12T19:53:02.633Z,100.00
2023-05-12T19:55:31.086Z,100.00
2023-05-12T19:57:59.609Z,100.00
2023-05-12T20:00:27.521Z,100.00
2023-05-12T20:02:55.620Z,100.00
2023-05-12T20:05:24.494Z,100.00
2023-05-12T20:07:52.453Z,100.00
2023-05-12T20:10:21.823Z,100.00
2023-05-12T20:12:49.769Z,100.00
2023-05-12T20:15:17.783Z,100.00
2023-05-12T20:17:45.811Z,100.00
2023-05-12T20:20:14.985Z,100.00
2023-05-12T20:22:42.905Z,100.00
2023-05-12T20:25:14.346Z,100.00
2023-05-12T20:27:43.831Z,100.00
2023-05-12T20:30:13.380Z,100.00
2023-05-12T20:32:41.410Z,100.00
2023-05-12T20:35:10.416Z,100.00
2023-05-12T20:37:38.926Z,100.00
2023-05-12T20:40:09.395Z,100.00
2023-05-12T20:42:37.427Z,100.00
2023-05-12T20:45:08.053Z,100.00
2023-05-12T20:47:36.796Z,100.00
2023-05-12T20:50:06.002Z,100.00
2023-05-12T20:52:34.160Z,100.00
2023-05-12T20:55:02.114Z,100.00
2023-05-12T20:57:30.305Z,100.00
2023-05-12T20:59:58.245Z,100.00
2023-05-12T21:02:29.386Z,100.00
2023-05-12T21:04:57.621Z,100.00
2023-05-12T21:07:25.537Z,100.00
2023-05-12T21:09:53.563Z,100.00
2023-05-12T21:12:21.744Z,100.00
2023-05-12T21:14:49.685Z,100.00
2023-05-12T21:17:17.600Z,100.00
2023-05-12T21:19:46.903Z,100.00
2023-05-12T21:22:14.958Z,100.00
2023-05-12T21:24:43.062Z,100.00
2023-05-12T21:27:11.646Z,100.00
2023-05-12T21:29:39.655Z,100.00
2023-05-12T21:32:08.518Z,100.00
2023-05-12T21:34:36.743Z,100.00
2023-05-12T21:37:06.412Z,100.00
2023-05-12T21:39:34.301Z,100.00
2023-05-12T21:42:02.249Z,100.00
2023-05-12T21:44:30.192Z,100.00
2023-05-12T21:46:58.753Z,100.00
2023-05-12T21:49:26.900Z,100.00
2023-05-12T21:51:56.101Z,100.00
2023-05-12T21:54:26.351Z,100.00
2023-05-12T21:56:56.109Z,100.00
2023-05-12T21:59:34.856Z,100.00
2023-05-12T22:02:07.723Z,100.00
2023-05-12T22:04:38.869Z,100.00
2023-05-12T22:07:08.022Z,100.00
2023-05-12T22:09:38.243Z,100.00
2023-05-12T22:12:07.929Z,100.00
2023-05-12T22:14:37.321Z,100.00
2023-05-12T22:17:06.838Z,100.00
2023-05-12T22:19:35.673Z,100.00
2023-05-12T22:22:04.400Z,100.00
2023-05-12T22:24:33.264Z,100.00
2023-05-12T22:27:03.543Z,100.00
2023-05-12T22:29:32.338Z,100.00
2023-05-12T22:32:01.187Z,100.00
2023-05-12T22:34:29.924Z,100.00
2023-05-12T22:36:58.617Z,100.00
2023-05-12T22:39:27.287Z,100.00
2023-05-12T22:41:56.158Z,100.00
2023-05-12T22:44:26.364Z,100.00
2023-05-12T22:46:54.535Z,100.00
2023-05-12T22:49:22.519Z,100.00
2023-05-12T22:51:50.593Z,100.00
2023-05-12T22:54:18.513Z,100.00
2023-05-12T22:56:46.454Z,100.00
2023-05-12T22:59:14.436Z,100.00
2023-05-12T23:01:43.970Z,100.00
2023-05-12T23:04:11.955Z,100.00
2023-05-12T23:06:39.980Z,100.00
2023-05-12T23:09:08.012Z,100.00
2023-05-12T23:11:35.950Z,100.00
2023-05-12T23:14:03.943Z,100.00
2023-05-12T23:16:32.145Z,100.00
2023-05-12T23:19:01.630Z,100.00
2023-05-12T23:21:29.581Z,100.00
2023-05-12T23:23:57.515Z,100.00
2023-05-12T23:26:25.615Z,100.00
2023-05-12T23:28:53.605Z,100.00
2023-05-12T23:31:21.585Z,100.00
2023-05-12T23:33:49.570Z,100.00
2023-05-12T23:36:18.956Z,100.00
2023-05-12T23:38:47.281Z,100.00
2023-05-12T23:41:15.251Z,100.00
2023-05-12T23:43:44.056Z,100.00
2023-05-12T23:46:12.073Z,100.00
2023-05-12T23:48:40.050Z,100.00
2023-05-12T23:51:08.385Z,100.00
2023-05-12T23:53:37.732Z,100.00
2023-05-12T23:56:06.144Z,100.00
2023-05-12T23:58:34.125Z,100.00
